sensor_id;sensor_type;location;lat;lon;timestamp;pressure;altitude;pressure_sealevel;temperature;humidity
45255;BME280;30989;52.078;21.014;2023-04-30T00:02:11;166817.78;;;11.67;88.05
45255;BME280;30989;52.078;21.014;2023-04-30T00:04:36;166807.06;;;11.63;88.44
45255;BME280;30989;52.078;21.014;2023-04-30T00:07:02;166796.34;;;11.59;88.81
45255;BME280;30989;52.078;21.014;2023-04-30T00:09:28;166808.41;;;11.63;89.02
45255;BME280;30989;52.078;21.014;2023-04-30T00:11:53;166800.38;;;11.60;89.13
45255;BME280;30989;52.078;21.014;2023-04-30T00:14:19;166807.06;;;11.63;89.19
45255;BME280;30989;52.078;21.014;2023-04-30T00:16:45;166817.78;;;11.67;89.45
45255;BME280;30989;52.078;21.014;2023-04-30T00:19:10;166816.44;;;11.67;89.52
45255;BME280;30989;52.078;21.014;2023-04-30T00:21:36;166804.38;;;11.62;89.93
45255;BME280;30989;52.078;21.014;2023-04-30T00:24:01;166819.13;;;11.68;89.67
45255;BME280;30989;52.078;21.014;2023-04-30T00:26:27;166825.84;;;11.70;90.34
45255;BME280;30989;52.078;21.014;2023-04-30T00:28:53;166821.81;;;11.69;90.00
45255;BME280;30989;52.078;21.014;2023-04-30T00:31:18;166815.13;;;11.66;90.21
45255;BME280;30989;52.078;21.014;2023-04-30T00:33:44;166825.84;;;11.70;90.72
45255;BME280;30989;52.078;21.014;2023-04-30T00:36:09;166808.41;;;11.63;90.51
45255;BME280;30989;52.078;21.014;2023-04-30T00:38:35;166812.44;;;11.65;90.92
45255;BME280;30989;52.078;21.014;2023-04-30T00:41:01;166805.72;;;11.62;91.59
45255;BME280;30989;52.078;21.014;2023-04-30T00:43:26;166793.66;;;11.58;91.44
45255;BME280;30989;52.078;21.014;2023-04-30T00:45:51;166764.19;;;11.47;91.86
45255;BME280;30989;52.078;21.014;2023-04-30T00:48:17;166765.53;;;11.47;93.50
45255;BME280;30989;52.078;21.014;2023-04-30T00:50:43;166774.91;;;11.51;93.43
45255;BME280;30989;52.078;21.014;2023-04-30T00:53:10;166758.81;;;11.45;93.87
45255;BME280;30989;52.078;21.014;2023-04-30T00:55:37;166756.16;;;11.44;94.65
45255;BME280;30989;52.078;21.014;2023-04-30T00:58:04;166745.44;;;11.40;97.27
45255;BME280;30989;52.078;21.014;2023-04-30T01:00:30;166750.78;;;11.42;96.32
45255;BME280;30989;52.078;21.014;2023-04-30T01:02:55;166748.09;;;11.41;95.98
45255;BME280;30989;52.078;21.014;2023-04-30T01:05:21;166748.09;;;11.41;97.34
45255;BME280;30989;52.078;21.014;2023-04-30T01:07:47;166754.81;;;11.43;96.93
45255;BME280;30989;52.078;21.014;2023-04-30T01:10:14;166762.84;;;11.46;96.96
45255;BME280;30989;52.078;21.014;2023-04-30T01:15:37;166761.50;;;11.46;100.00
45255;BME280;30989;52.078;21.014;2023-04-30T01:18:22;166766.88;;;11.48;100.00
45255;BME280;30989;52.078;21.014;2023-04-30T01:21:02;166766.88;;;11.48;100.00
45255;BME280;30989;52.078;21.014;2023-04-30T01:28:43;166758.81;;;11.45;100.00
45255;BME280;30989;52.078;21.014;2023-04-30T01:31:17;166734.69;;;11.36;100.00
45255;BME280;30989;52.078;21.014;2023-04-30T01:33:42;166736.03;;;11.36;100.00
45255;BME280;30989;52.078;21.014;2023-04-30T01:41:46;166718.63;;;11.29;100.00
45255;BME280;30989;52.078;21.014;2023-04-30T01:50:04;166697.19;;;11.21;100.00
45255;BME280;30989;52.078;21.014;2023-04-30T01:52:40;166695.84;;;11.21;100.00
45255;BME280;30989;52.078;21.014;2023-04-30T01:55:20;166694.50;;;11.20;100.00
45255;BME280;30989;52.078;21.014;2023-04-30T01:58:09;166690.50;;;11.19;100.00
45255;BME280;30989;52.078;21.014;2023-04-30T02:00:36;166686.47;;;11.17;100.00
45255;BME280;30989;52.078;21.014;2023-04-30T02:03:02;166682.44;;;11.16;100.00
45255;BME280;30989;52.078;21.014;2023-04-30T02:05:28;166683.78;;;11.16;100.00
45255;BME280;30989;52.078;21.014;2023-04-30T02:07:54;166678.44;;;11.14;100.00
45255;BME280;30989;52.078;21.014;2023-04-30T02:10:22;166671.72;;;11.12;100.00
45255;BME280;30989;52.078;21.014;2023-04-30T02:12:48;166661.00;;;11.08;100.00
45255;BME280;30989;52.078;21.014;2023-04-30T02:15:14;166657.00;;;11.06;100.00
45255;BME280;30989;52.078;21.014;2023-04-30T02:17:40;166654.31;;;11.05;100.00
45255;BME280;30989;52.078;21.014;2023-04-30T02:20:06;166646.28;;;11.02;100.00
45255;BME280;30989;52.078;21.014;2023-04-30T02:22:32;166643.59;;;11.01;100.00
45255;BME280;30989;52.078;21.014;2023-04-30T02:24:58;166638.25;;;10.99;100.00
45255;BME280;30989;52.078;21.014;2023-04-30T02:27:24;166642.25;;;11.01;100.00
45255;BME280;30989;52.078;21.014;2023-04-30T02:29:51;166630.19;;;10.96;100.00
45255;BME280;30989;52.078;21.014;2023-04-30T02:32:16;166623.50;;;10.93;100.00
45255;BME280;30989;52.078;21.014;2023-04-30T02:34:42;166620.81;;;10.92;100.00
45255;BME280;30989;52.078;21.014;2023-04-30T02:37:07;166628.88;;;10.95;100.00
45255;BME280;30989;52.078;21.014;2023-04-30T02:39:33;166635.56;;;10.98;100.00
45255;BME280;30989;52.078;21.014;2023-04-30T02:41:59;166632.88;;;10.97;100.00
45255;BME280;30989;52.078;21.014;2023-04-30T02:44:25;166635.56;;;10.98;100.00
45255;BME280;30989;52.078;21.014;2023-04-30T02:46:50;166639.56;;;11.00;100.00
45255;BME280;30989;52.078;21.014;2023-04-30T02:49:16;166651.63;;;11.04;100.00
45255;BME280;30989;52.078;21.014;2023-04-30T02:51:41;166651.63;;;11.04;100.00
45255;BME280;30989;52.078;21.014;2023-04-30T02:54:07;166650.28;;;11.04;100.00
45255;BME280;30989;52.078;21.014;2023-04-30T02:56:32;166646.28;;;11.02;100.00
45255;BME280;30989;52.078;21.014;2023-04-30T02:58:59;166639.56;;;11.00;100.00
45255;BME280;30989;52.078;21.014;2023-04-30T03:01:25;166636.91;;;10.98;100.00
45255;BME280;30989;52.078;21.014;2023-04-30T03:03:50;166616.81;;;10.91;100.00
45255;BME280;30989;52.078;21.014;2023-04-30T03:06:15;166610.09;;;10.88;100.00
45255;BME280;30989;52.078;21.014;2023-04-30T03:08:41;166616.81;;;10.91;100.00
45255;BME280;30989;52.078;21.014;2023-04-30T03:11:06;166608.75;;;10.88;100.00
45255;BME280;30989;52.078;21.014;2023-04-30T03:13:32;166600.72;;;10.85;100.00
45255;BME280;30989;52.078;21.014;2023-04-30T03:15:58;166596.72;;;10.83;100.00
45255;BME280;30989;52.078;21.014;2023-04-30T03:18:24;166587.34;;;10.80;100.00
45255;BME280;30989;52.078;21.014;2023-04-30T03:20:50;166581.97;;;10.78;100.00
45255;BME280;30989;52.078;21.014;2023-04-30T03:23:15;166579.28;;;10.77;100.00
45255;BME280;30989;52.078;21.014;2023-04-30T03:25:41;166579.28;;;10.77;100.00
45255;BME280;30989;52.078;21.014;2023-04-30T03:28:06;166576.63;;;10.76;100.00
45255;BME280;30989;52.078;21.014;2023-04-30T03:30:32;166555.19;;;10.68;100.00
45255;BME280;30989;52.078;21.014;2023-04-30T03:32:57;166559.19;;;10.69;100.00
45255;BME280;30989;52.078;21.014;2023-04-30T03:35:23;166544.47;;;10.63;100.00
45255;BME280;30989;52.078;21.014;2023-04-30T03:37:48;166563.22;;;10.71;100.00
45255;BME280;30989;52.078;21.014;2023-04-30T03:40:14;166556.53;;;10.68;100.00
45255;BME280;30989;52.078;21.014;2023-04-30T03:42:40;166555.19;;;10.68;100.00
45255;BME280;30989;52.078;21.014;2023-04-30T03:45:06;166545.81;;;10.64;100.00
45255;BME280;30989;52.078;21.014;2023-04-30T03:47:32;166529.75;;;10.58;100.00
45255;BME280;30989;52.078;21.014;2023-04-30T03:49:57;166524.38;;;10.56;100.00
45255;BME280;30989;52.078;21.014;2023-04-30T03:52:23;166501.59;;;10.47;100.00
45255;BME280;30989;52.078;21.014;2023-04-30T03:54:49;166500.28;;;10.47;100.00
45255;BME280;30989;52.078;21.014;2023-04-30T03:57:15;166488.22;;;10.42;100.00
45255;BME280;30989;52.078;21.014;2023-04-30T03:59:40;166480.13;;;10.39;100.00
45255;BME280;30989;52.078;21.014;2023-04-30T04:02:06;166448.00;;;10.27;100.00
45255;BME280;30989;52.078;21.014;2023-04-30T04:04:32;166454.69;;;10.29;100.00
45255;BME280;30989;52.078;21.014;2023-04-30T04:06:58;166433.25;;;10.21;100.00
45255;BME280;30989;52.078;21.014;2023-04-30T04:09:23;166417.16;;;10.15;100.00
45255;BME280;30989;52.078;21.014;2023-04-30T04:11:49;166398.41;;;10.08;100.00
45255;BME280;30989;52.078;21.014;2023-04-30T04:14:14;166367.59;;;9.96;100.00
45255;BME280;30989;52.078;21.014;2023-04-30T04:16:41;166346.19;;;9.88;100.00
45255;BME280;30989;52.078;21.014;2023-04-30T04:19:07;166319.41;;;9.78;100.00
45255;BME280;30989;52.078;21.014;2023-04-30T04:21:33;166304.69;;;9.73;100.00
45255;BME280;30989;52.078;21.014;2023-04-30T04:24:01;166279.25;;;9.63;100.00
45255;BME280;30989;52.078;21.014;2023-04-30T04:26:36;166257.84;;;9.55;100.00
45255;BME280;30989;52.078;21.014;2023-04-30T04:29:03;166239.09;;;9.48;100.00
45255;BME280;30989;52.078;21.014;2023-04-30T04:31:29;166201.63;;;9.33;100.00
45255;BME280;30989;52.078;21.014;2023-04-30T04:33:58;166196.28;;;9.31;100.00
45255;BME280;30989;52.078;21.014;2023-04-30T04:36:28;166174.88;;;9.23;100.00
45255;BME280;30989;52.078;21.014;2023-04-30T04:38:58;166150.78;;;9.14;100.00
45255;BME280;30989;52.078;21.014;2023-04-30T04:41:30;166156.13;;;9.16;100.00
45255;BME280;30989;52.078;21.014;2023-04-30T04:43:58;166144.09;;;9.12;100.00
45255;BME280;30989;52.078;21.014;2023-04-30T04:46:25;166152.13;;;9.15;100.00
45255;BME280;30989;52.078;21.014;2023-04-30T04:48:51;166153.47;;;9.15;100.00
45255;BME280;30989;52.078;21.014;2023-04-30T04:51:17;166156.13;;;9.16;100.00
45255;BME280;30989;52.078;21.014;2023-04-30T04:53:43;166145.44;;;9.12;100.00
45255;BME280;30989;52.078;21.014;2023-04-30T04:56:08;166160.16;;;9.18;100.00
45255;BME280;30989;52.078;21.014;2023-04-30T04:58:34;166172.19;;;9.22;100.00
45255;BME280;30989;52.078;21.014;2023-04-30T05:01:00;166174.88;;;9.23;100.00
45255;BME280;30989;52.078;21.014;2023-04-30T05:03:27;166182.88;;;9.26;100.00
45255;BME280;30989;52.078;21.014;2023-04-30T05:05:53;166182.88;;;9.26;100.00
45255;BME280;30989;52.078;21.014;2023-04-30T05:08:19;166166.84;;;9.20;100.00
45255;BME280;30989;52.078;21.014;2023-04-30T05:10:45;166205.63;;;9.35;100.00
45255;BME280;30989;52.078;21.014;2023-04-30T05:13:10;166193.59;;;9.30;100.00
45255;BME280;30989;52.078;21.014;2023-04-30T05:15:36;166211.00;;;9.37;100.00
45255;BME280;30989;52.078;21.014;2023-04-30T05:18:02;166215.00;;;9.38;100.00
45255;BME280;30989;52.078;21.014;2023-04-30T05:20:27;166223.03;;;9.42;100.00
45255;BME280;30989;52.078;21.014;2023-04-30T05:22:52;166228.38;;;9.44;100.00
45255;BME280;30989;52.078;21.014;2023-04-30T05:25:18;166233.75;;;9.46;100.00
45255;BME280;30989;52.078;21.014;2023-04-30T05:27:43;166249.81;;;9.52;100.00
45255;BME280;30989;52.078;21.014;2023-04-30T05:30:09;166260.50;;;9.56;100.00
45255;BME280;30989;52.078;21.014;2023-04-30T05:32:35;166253.81;;;9.53;100.00
45255;BME280;30989;52.078;21.014;2023-04-30T05:35:00;166268.53;;;9.59;100.00
45255;BME280;30989;52.078;21.014;2023-04-30T05:37:26;166276.56;;;9.62;100.00
45255;BME280;30989;52.078;21.014;2023-04-30T05:39:51;166289.97;;;9.67;100.00
45255;BME280;30989;52.078;21.014;2023-04-30T05:42:19;166300.66;;;9.71;100.00
45255;BME280;30989;52.078;21.014;2023-04-30T05:44:44;166303.34;;;9.72;100.00
45255;BME280;30989;52.078;21.014;2023-04-30T05:47:10;166293.97;;;9.68;100.00
45255;BME280;30989;52.078;21.014;2023-04-30T05:49:35;166322.09;;;9.79;100.00
45255;BME280;30989;52.078;21.014;2023-04-30T05:52:01;166318.06;;;9.78;100.00
45255;BME280;30989;52.078;21.014;2023-04-30T05:54:28;166332.81;;;9.83;100.00
45255;BME280;30989;52.078;21.014;2023-04-30T05:56:54;166351.53;;;9.90;100.00
45255;BME280;30989;52.078;21.014;2023-04-30T05:59:19;166386.34;;;10.03;100.00
45255;BME280;30989;52.078;21.014;2023-04-30T06:01:45;166399.75;;;10.09;100.00
45255;BME280;30989;52.078;21.014;2023-04-30T06:04:10;166438.63;;;10.23;100.00
45255;BME280;30989;52.078;21.014;2023-04-30T06:06:36;166442.63;;;10.25;100.00
45255;BME280;30989;52.078;21.014;2023-04-30T06:09:01;166460.03;;;10.31;100.00
45255;BME280;30989;52.078;21.014;2023-04-30T06:11:27;166480.13;;;10.39;100.00
45255;BME280;30989;52.078;21.014;2023-04-30T06:13:53;166492.25;;;10.44;100.00
45255;BME280;30989;52.078;21.014;2023-04-30T06:16:19;166496.25;;;10.45;100.00
45255;BME280;30989;52.078;21.014;2023-04-30T06:18:44;166497.59;;;10.46;100.00
45255;BME280;30989;52.078;21.014;2023-04-30T06:21:10;166515.00;;;10.52;100.00
45255;BME280;30989;52.078;21.014;2023-04-30T06:23:35;166541.78;;;10.62;100.00
45255;BME280;30989;52.078;21.014;2023-04-30T06:26:02;166547.16;;;10.64;100.00
45255;BME280;30989;52.078;21.014;2023-04-30T06:28:27;166548.47;;;10.65;100.00
45255;BME280;30989;52.078;21.014;2023-04-30T06:30:53;166555.19;;;10.68;100.00
45255;BME280;30989;52.078;21.014;2023-04-30T06:33:19;166567.25;;;10.72;100.00
45255;BME280;30989;52.078;21.014;2023-04-30T06:35:45;166560.53;;;10.70;100.00
45255;BME280;30989;52.078;21.014;2023-04-30T06:38:10;166559.19;;;10.69;100.00
45255;BME280;30989;52.078;21.014;2023-04-30T06:40:36;166563.22;;;10.71;100.00
45255;BME280;30989;52.078;21.014;2023-04-30T06:43:01;166563.22;;;10.71;100.00
45255;BME280;30989;52.078;21.014;2023-04-30T06:45:27;166523.03;;;10.55;100.00
45255;BME280;30989;52.078;21.014;2023-04-30T06:47:53;166521.69;;;10.55;100.00
45255;BME280;30989;52.078;21.014;2023-04-30T06:50:18;166517.69;;;10.53;100.00
45255;BME280;30989;52.078;21.014;2023-04-30T06:52:45;166497.59;;;10.46;100.00
45255;BME280;30989;52.078;21.014;2023-04-30T06:55:10;166489.56;;;10.43;100.00
45255;BME280;30989;52.078;21.014;2023-04-30T06:57:36;166489.56;;;10.43;100.00
45255;BME280;30989;52.078;21.014;2023-04-30T07:00:06;166496.25;;;10.45;100.00
45255;BME280;30989;52.078;21.014;2023-04-30T07:02:32;166480.13;;;10.39;100.00
45255;BME280;30989;52.078;21.014;2023-04-30T07:04:57;166480.13;;;10.39;100.00
45255;BME280;30989;52.078;21.014;2023-04-30T07:07:23;166488.22;;;10.42;100.00
45255;BME280;30989;52.078;21.014;2023-04-30T07:09:48;166515.00;;;10.52;100.00
45255;BME280;30989;52.078;21.014;2023-04-30T07:12:14;166535.09;;;10.60;100.00
45255;BME280;30989;52.078;21.014;2023-04-30T07:14:39;166565.91;;;10.72;100.00
45255;BME280;30989;52.078;21.014;2023-04-30T07:17:05;166595.38;;;10.83;100.00
45255;BME280;30989;52.078;21.014;2023-04-30T07:19:30;166620.81;;;10.92;98.44
45255;BME280;30989;52.078;21.014;2023-04-30T07:21:56;166659.66;;;11.07;94.28
45255;BME280;30989;52.078;21.014;2023-04-30T07:24:22;166691.84;;;11.19;95.00
45255;BME280;30989;52.078;21.014;2023-04-30T07:26:47;166705.22;;;11.24;92.29
45255;BME280;30989;52.078;21.014;2023-04-30T07:29:13;166675.75;;;11.13;89.61
45255;BME280;30989;52.078;21.014;2023-04-30T07:31:38;166673.06;;;11.12;87.80
45255;BME280;30989;52.078;21.014;2023-04-30T07:34:04;166689.16;;;11.18;86.70
45255;BME280;30989;52.078;21.014;2023-04-30T07:36:29;166707.91;;;11.25;85.51
45255;BME280;30989;52.078;21.014;2023-04-30T07:38:55;166719.97;;;11.30;83.73
45255;BME280;30989;52.078;21.014;2023-04-30T07:41:20;166749.44;;;11.41;85.41
45255;BME280;30989;52.078;21.014;2023-04-30T07:43:46;166765.53;;;11.47;80.33
45255;BME280;30989;52.078;21.014;2023-04-30T07:46:11;166762.84;;;11.46;80.16
45255;BME280;30989;52.078;21.014;2023-04-30T07:48:37;166785.63;;;11.55;79.77
45255;BME280;30989;52.078;21.014;2023-04-30T07:51:03;166800.38;;;11.60;79.67
45255;BME280;30989;52.078;21.014;2023-04-30T07:53:29;166847.34;;;11.78;80.48
45255;BME280;30989;52.078;21.014;2023-04-30T07:55:55;166870.13;;;11.87;76.50
45255;BME280;30989;52.078;21.014;2023-04-30T07:58:20;166866.09;;;11.85;75.77
45255;BME280;30989;52.078;21.014;2023-04-30T08:00:45;166848.69;;;11.79;75.82
45255;BME280;30989;52.078;21.014;2023-04-30T08:03:11;166862.06;;;11.84;76.95
45255;BME280;30989;52.078;21.014;2023-04-30T08:05:36;166871.47;;;11.87;75.58
45255;BME280;30989;52.078;21.014;2023-04-30T08:08:02;166895.59;;;11.97;76.14
45255;BME280;30989;52.078;21.014;2023-04-30T08:10:28;166935.81;;;12.12;74.15
45255;BME280;30989;52.078;21.014;2023-04-30T08:12:53;166951.91;;;12.18;71.89
45255;BME280;30989;52.078;21.014;2023-04-30T08:15:19;166939.81;;;12.13;71.18
45255;BME280;30989;52.078;21.014;2023-04-30T08:17:48;166966.63;;;12.23;70.50
45255;BME280;30989;52.078;21.014;2023-04-30T08:20:14;166984.06;;;12.30;69.85
45255;BME280;30989;52.078;21.014;2023-04-30T08:22:40;167005.53;;;12.38;72.97
45255;BME280;30989;52.078;21.014;2023-04-30T08:25:06;167017.59;;;12.43;71.07
45255;BME280;30989;52.078;21.014;2023-04-30T08:27:31;167014.91;;;12.42;67.48
45255;BME280;30989;52.078;21.014;2023-04-30T08:29:57;167009.53;;;12.40;69.12
45255;BME280;30989;52.078;21.014;2023-04-30T08:32:22;167032.34;;;12.48;67.39
45255;BME280;30989;52.078;21.014;2023-04-30T08:34:48;167037.69;;;12.50;67.65
45255;BME280;30989;52.078;21.014;2023-04-30T08:37:13;167047.09;;;12.54;68.41
45255;BME280;30989;52.078;21.014;2023-04-30T08:39:40;167051.09;;;12.55;68.10
45255;BME280;30989;52.078;21.014;2023-04-30T08:42:08;167067.19;;;12.62;66.24
45255;BME280;30989;52.078;21.014;2023-04-30T08:44:36;167061.84;;;12.59;65.21
45255;BME280;30989;52.078;21.014;2023-04-30T08:47:05;167039.03;;;12.51;63.00
45255;BME280;30989;52.078;21.014;2023-04-30T08:49:32;167032.34;;;12.48;61.38
45255;BME280;30989;52.078;21.014;2023-04-30T08:51:57;167022.94;;;12.45;63.09
45255;BME280;30989;52.078;21.014;2023-04-30T08:54:27;167045.75;;;12.53;63.67
45255;BME280;30989;52.078;21.014;2023-04-30T08:56:54;167067.19;;;12.62;61.92
45255;BME280;30989;52.078;21.014;2023-04-30T08:59:20;167077.94;;;12.66;61.82
45255;BME280;30989;52.078;21.014;2023-04-30T09:01:45;167083.28;;;12.68;59.84
45255;BME280;30989;52.078;21.014;2023-04-30T09:04:11;167069.88;;;12.63;61.10
45255;BME280;30989;52.078;21.014;2023-04-30T09:06:37;167088.66;;;12.70;61.42
45255;BME280;30989;52.078;21.014;2023-04-30T09:09:08;167071.22;;;12.63;60.12
45255;BME280;30989;52.078;21.014;2023-04-30T09:11:35;167052.44;;;12.56;60.74
45255;BME280;30989;52.078;21.014;2023-04-30T09:14:01;167059.16;;;12.58;59.57
45255;BME280;30989;52.078;21.014;2023-04-30T09:16:45;167061.84;;;12.59;57.59
45255;BME280;30989;52.078;21.014;2023-04-30T09:19:28;167072.56;;;12.64;58.71
45255;BME280;30989;52.078;21.014;2023-04-30T09:21:53;167085.97;;;12.69;57.70
45255;BME280;30989;52.078;21.014;2023-04-30T09:24:19;167114.16;;;12.79;57.60
45255;BME280;30989;52.078;21.014;2023-04-30T09:26:45;167150.34;;;12.93;57.33
45255;BME280;30989;52.078;21.014;2023-04-30T09:29:11;167189.25;;;13.08;57.24
45255;BME280;30989;52.078;21.014;2023-04-30T09:31:39;167213.44;;;13.17;53.97
45255;BME280;30989;52.078;21.014;2023-04-30T09:34:05;167217.47;;;13.18;51.19
45255;BME280;30989;52.078;21.014;2023-04-30T09:36:31;167205.34;;;13.14;51.09
45255;BME280;30989;52.078;21.014;2023-04-30T09:39:07;167244.31;;;13.29;51.66
45255;BME280;30989;52.078;21.014;2023-04-30T09:41:34;167257.72;;;13.34;47.79
45255;BME280;30989;52.078;21.014;2023-04-30T09:44:00;167222.84;;;13.20;46.55
45255;BME280;30989;52.078;21.014;2023-04-30T09:46:34;167236.25;;;13.26;45.94
45255;BME280;30989;52.078;21.014;2023-04-30T09:49:05;167212.13;;;13.16;45.75
45255;BME280;30989;52.078;21.014;2023-04-30T09:51:30;167201.31;;;13.12;47.21
45255;BME280;30989;52.078;21.014;2023-04-30T09:53:56;167209.38;;;13.15;47.52
45255;BME280;30989;52.078;21.014;2023-04-30T09:56:24;167220.16;;;13.19;45.59
45255;BME280;30989;52.078;21.014;2023-04-30T09:58:52;167221.50;;;13.20;45.18
45255;BME280;30989;52.078;21.014;2023-04-30T10:01:19;167216.13;;;13.18;42.62
45255;BME280;30989;52.078;21.014;2023-04-30T10:03:46;167233.56;;;13.25;42.90
45255;BME280;30989;52.078;21.014;2023-04-30T10:06:13;167248.34;;;13.30;43.80
45255;BME280;30989;52.078;21.014;2023-04-30T10:08:41;167251.00;;;13.31;43.67
45255;BME280;30989;52.078;21.014;2023-04-30T10:11:08;167252.34;;;13.32;44.52
45255;BME280;30989;52.078;21.014;2023-04-30T10:13:44;167295.28;;;13.48;45.85
45255;BME280;30989;52.078;21.014;2023-04-30T10:16:18;167322.13;;;13.58;45.49
45255;BME280;30989;52.078;21.014;2023-04-30T10:18:51;167361.03;;;13.73;44.55
45255;BME280;30989;52.078;21.014;2023-04-30T10:21:17;167381.16;;;13.80;43.73
45255;BME280;30989;52.078;21.014;2023-04-30T10:23:45;167383.84;;;13.81;44.02
45255;BME280;30989;52.078;21.014;2023-04-30T10:26:10;167381.16;;;13.80;42.63
45255;BME280;30989;52.078;21.014;2023-04-30T10:28:37;167397.28;;;13.86;43.84
45255;BME280;30989;52.078;21.014;2023-04-30T10:31:03;167418.75;;;13.95;45.95
45255;BME280;30989;52.078;21.014;2023-04-30T10:36:46;167585.25;;;14.58;42.96
45255;BME280;30989;52.078;21.014;2023-04-30T10:39:17;167613.44;;;14.68;43.32
45255;BME280;30989;52.078;21.014;2023-04-30T10:41:46;167637.63;;;14.77;41.73
45255;BME280;30989;52.078;21.014;2023-04-30T10:44:13;167668.50;;;14.89;42.97
45255;BME280;30989;52.078;21.014;2023-04-30T10:46:39;167677.91;;;14.93;43.19
45255;BME280;30989;52.078;21.014;2023-04-30T10:49:05;167749.09;;;15.20;42.06
45255;BME280;30989;52.078;21.014;2023-04-30T10:52:01;167828.34;;;15.49;40.60
45255;BME280;30989;52.078;21.014;2023-04-30T10:54:32;167888.88;;;15.72;42.65
45255;BME280;30989;52.078;21.014;2023-04-30T10:57:12;167946.66;;;15.94;37.64
45255;BME280;30989;52.078;21.014;2023-04-30T10:59:42;168003.09;;;16.16;37.90
45255;BME280;30989;52.078;21.014;2023-04-30T11:02:14;168052.81;;;16.34;36.74
45255;BME280;30989;52.078;21.014;2023-04-30T11:07:35;168082.41;;;16.46;34.68
45255;BME280;30989;52.078;21.014;2023-04-30T11:10:02;168086.44;;;16.47;34.27
45255;BME280;30989;52.078;21.014;2023-04-30T11:12:28;168113.31;;;16.57;34.42
45255;BME280;30989;52.078;21.014;2023-04-30T11:15:05;168145.63;;;16.69;35.84
45255;BME280;30989;52.078;21.014;2023-04-30T11:17:32;168223.59;;;16.99;35.20
45255;BME280;30989;52.078;21.014;2023-04-30T11:20:00;168348.66;;;17.46;34.28
45255;BME280;30989;52.078;21.014;2023-04-30T11:22:27;168518.19;;;18.10;34.89
45255;BME280;30989;52.078;21.014;2023-04-30T11:25:08;168705.28;;;18.81;32.83
45255;BME280;30989;52.078;21.014;2023-04-30T11:27:35;168865.44;;;19.41;33.78
45255;BME280;30989;52.078;21.014;2023-04-30T11:30:05;169009.56;;;19.95;31.64
45255;BME280;30989;52.078;21.014;2023-04-30T11:32:35;169067.50;;;20.17;30.58
45255;BME280;30989;52.078;21.014;2023-04-30T11:35:02;169091.72;;;20.26;32.21
45255;BME280;30989;52.078;21.014;2023-04-30T11:37:32;169206.28;;;20.70;30.61
45255;BME280;30989;52.078;21.014;2023-04-30T11:40:04;169238.66;;;20.82;29.06
45255;BME280;30989;52.078;21.014;2023-04-30T11:42:30;169276.41;;;20.96;30.09
45255;BME280;30989;52.078;21.014;2023-04-30T11:47:40;169361.34;;;21.28;29.60
45255;BME280;30989;52.078;21.014;2023-04-30T11:50:10;169426.03;;;21.52;30.53
45255;BME280;30989;52.078;21.014;2023-04-30T11:52:36;169452.97;;;21.63;29.61
45255;BME280;30989;52.078;21.014;2023-04-30T11:55:24;169510.94;;;21.84;29.83
45255;BME280;30989;52.078;21.014;2023-04-30T11:57:51;169579.75;;;22.10;29.48
45255;BME280;30989;52.078;21.014;2023-04-30T12:00:20;169686.28;;;22.50;29.70
45255;BME280;30989;52.078;21.014;2023-04-30T12:02:47;169702.44;;;22.57;28.25
45255;BME280;30989;52.078;21.014;2023-04-30T12:05:18;169640.44;;;22.33;27.85
45255;BME280;30989;52.078;21.014;2023-04-30T12:07:53;169613.47;;;22.23;28.44
45255;BME280;30989;52.078;21.014;2023-04-30T12:10:19;169703.78;;;22.57;29.25
45255;BME280;30989;52.078;21.014;2023-04-30T12:12:46;169742.91;;;22.72;28.77
45255;BME280;30989;52.078;21.014;2023-04-30T12:15:14;169707.84;;;22.59;28.47
45255;BME280;30989;52.078;21.014;2023-04-30T12:17:40;169717.28;;;22.62;26.87
45255;BME280;30989;52.078;21.014;2023-04-30T12:20:07;169701.09;;;22.56;27.61
45255;BME280;30989;52.078;21.014;2023-04-30T12:22:33;169725.38;;;22.65;27.94
45255;BME280;30989;52.078;21.014;2023-04-30T12:25:14;169799.59;;;22.93;28.06
45255;BME280;30989;52.078;21.014;2023-04-30T12:27:43;169831.97;;;23.05;26.37
45255;BME280;30989;52.078;21.014;2023-04-30T12:30:09;169868.41;;;23.19;26.89
45255;BME280;30989;52.078;21.014;2023-04-30T12:32:43;169943.94;;;23.47;27.66
45255;BME280;30989;52.078;21.014;2023-04-30T12:35:16;170031.69;;;23.81;26.30
45255;BME280;30989;52.078;21.014;2023-04-30T12:37:43;170065.41;;;23.93;26.35
45255;BME280;30989;52.078;21.014;2023-04-30T12:40:09;170034.38;;;23.82;24.15
45255;BME280;30989;52.078;21.014;2023-04-30T12:42:34;169949.34;;;23.50;24.32
45255;BME280;30989;52.078;21.014;2023-04-30T12:45:00;169841.41;;;23.09;25.05
45255;BME280;30989;52.078;21.014;2023-04-30T12:47:26;169749.66;;;22.74;25.73
45255;BME280;30989;52.078;21.014;2023-04-30T12:49:51;169691.66;;;22.52;25.94
45255;BME280;30989;52.078;21.014;2023-04-30T12:52:23;169771.28;;;22.82;26.41
45255;BME280;30989;52.078;21.014;2023-04-30T12:54:49;169790.16;;;22.90;25.39
45255;BME280;30989;52.078;21.014;2023-04-30T12:57:15;169829.28;;;23.04;27.06
45255;BME280;30989;52.078;21.014;2023-04-30T13:02:22;169900.75;;;23.31;25.83
45255;BME280;30989;52.078;21.014;2023-04-30T13:04:48;169903.47;;;23.32;23.74
45255;BME280;30989;52.078;21.014;2023-04-30T13:07:14;169858.94;;;23.15;24.19
45255;BME280;30989;52.078;21.014;2023-04-30T13:09:39;169900.75;;;23.31;25.37